Arlington Heights, Illinois
Current Conditions -  °F | °C
As of 6:30 PM on Monday 24 Nov 2014 (Local Time) from KPWK Reporting Station
Haze Haze  
Wind Chill: 15°   Ceiling: 1300
Heat Index: 27°   Visibility: 6mi
Dew Point: 22°   Wind: 16mph
Humidity: 81%   Direction: 240°WSW
Pressure: 29.66"   Gusts: 24mph
Location:  42.14°N, 87.99°W
Report Text: KPWK 250030Z 24014G21KT 6SM HZ OVC013 M03/M06 A2966 RMK AO2 T10281056
Loading
Personal Weather Stations






























Interactive Weather Map New forecast layout! Learn more

10-Day Weather Forecast

Advertisements
Track Severe Weather on mobile